Time;durP1;ratioP1;P1;durP2;ratioP2;P2;SDS_P1;SDS_P2;PMS_P1;PMS_P2;Temp;Humidity;BMP_temperature;BMP_pressure;BME280_temperature;BME280_humidity;BME280_pressure;Samples;Min_cycle;Max_cycle;Signal;HPM_P1;HPM_P2
2023/12/06 00:01:29;;;;;;;39.40;19.85;;;;;;;1.45;100.00;101269.09;5113807;28;20081;-75
2023/12/06 00:03:55;;;;;;;39.92;20.77;;;;;;;1.46;100.00;101265.53;5113584;28;20032;-75
2023/12/06 00:06:20;;;;;;;33.97;19.52;;;;;;;1.47;100.00;101266.41;5094990;28;20036;-74
2023/12/06 00:08:46;;;;;;;34.25;20.30;;;;;;;1.47;100.00;101261.16;5095155;28;20031;-75
2023/12/06 00:11:11;;;;;;;40.65;20.40;;;;;;;1.48;100.00;101265.47;5116240;28;20023;-74
2023/12/06 00:13:37;;;;;;;38.30;20.83;;;;;;;1.48;100.00;101278.56;5098239;28;20042;-75
2023/12/06 00:16:02;;;;;;;34.90;20.83;;;;;;;1.49;100.00;101273.25;5117286;28;20028;-75
2023/12/06 00:18:27;;;;;;;43.10;21.17;;;;;;;1.50;100.00;101288.09;5098099;28;20054;-75
2023/12/06 00:20:53;;;;;;;33.22;20.38;;;;;;;1.52;100.00;101280.16;5116722;28;20348;-75
2023/12/06 00:23:18;;;;;;;39.33;21.33;;;;;;;1.56;100.00;101292.22;5116428;28;20118;-76
2023/12/06 00:25:44;;;;;;;35.97;20.90;;;;;;;1.58;100.00;101290.34;5116347;28;20452;-75
2023/12/06 00:28:09;;;;;;;38.03;20.85;;;;;;;1.58;100.00;101293.84;5098352;28;20032;-75
2023/12/06 00:30:36;;;;;;;35.42;20.63;;;;;;;1.60;100.00;101293.78;5116261;28;20474;-75
2023/12/06 00:33:01;;;;;;;43.30;20.80;;;;;;;1.63;100.00;101303.25;5116658;28;20131;-75
2023/12/06 00:35:26;;;;;;;37.25;21.65;;;;;;;1.62;100.00;101299.78;5116347;28;20100;-75
2023/12/06 00:37:52;;;;;;;39.63;20.02;;;;;;;1.64;100.00;101299.72;5116641;28;20026;-75
2023/12/06 00:40:17;;;;;;;31.92;19.90;;;;;;;1.62;100.00;101306.81;5116440;28;20057;-75
2023/12/06 00:42:42;;;;;;;41.40;20.67;;;;;;;1.59;100.00;101308.66;5116798;28;20035;-75
2023/12/06 00:45:08;;;;;;;37.95;21.15;;;;;;;1.58;100.00;101306.09;5098061;28;20038;-76
2023/12/06 00:47:33;;;;;;;33.63;19.42;;;;;;;1.55;100.00;101307.09;5097906;28;20027;-75
2023/12/06 00:49:59;;;;;;;35.22;19.98;;;;;;;1.53;100.00;101308.94;5116196;28;20019;-75
2023/12/06 00:52:24;;;;;;;39.35;20.83;;;;;;;1.54;100.00;101310.63;5116089;28;20051;-75
2023/12/06 00:54:49;;;;;;;36.67;21.52;;;;;;;1.54;100.00;101315.03;5116474;28;20031;-75
2023/12/06 00:57:15;;;;;;;35.35;21.40;;;;;;;1.59;100.00;101320.91;5116335;28;20023;-75
2023/12/06 00:59:40;;;;;;;34.17;21.67;;;;;;;1.59;100.00;101319.13;5116010;28;20064;-74
2023/12/06 01:02:06;;;;;;;38.88;21.55;;;;;;;1.58;100.00;101327.94;5115817;28;20027;-75
2023/12/06 01:04:35;;;;;;;34.15;21.00;;;;;;;1.58;100.00;101322.69;5097669;28;20092;-76
2023/12/06 01:07:00;;;;;;;43.28;22.42;;;;;;;1.60;100.00;101327.88;5116502;28;20027;-75
2023/12/06 01:09:25;;;;;;;38.85;22.10;;;;;;;1.59;100.00;101326.16;5097805;28;20118;-76
2023/12/06 01:11:51;;;;;;;35.55;20.58;;;;;;;1.57;100.00;101328.84;5115504;28;20466;-75
2023/12/06 01:14:16;;;;;;;35.63;20.55;;;;;;;1.56;100.00;101332.38;5115961;28;20356;-75
2023/12/06 01:16:41;;;;;;;40.42;20.75;;;;;;;1.53;100.00;101337.78;5115924;28;20027;-75
2023/12/06 01:19:07;;;;;;;43.58;22.17;;;;;;;1.48;100.00;101333.66;5097303;28;20050;-75
2023/12/06 01:21:33;;;;;;;34.28;20.70;;;;;;;1.40;100.00;101329.63;5114599;28;20030;-75
2023/12/06 01:23:58;;;;;;;38.78;20.48;;;;;;;1.37;100.00;101334.13;5115331;28;20028;-75
2023/12/06 01:26:23;;;;;;;35.58;20.45;;;;;;;1.33;100.00;101325.56;5115545;28;20027;-75
2023/12/06 01:28:49;;;;;;;37.50;21.27;;;;;;;1.32;100.00;101326.47;5116219;28;20374;-74
2023/12/06 01:31:14;;;;;;;38.70;21.20;;;;;;;1.32;100.00;101333.50;5097091;28;20027;-75
2023/12/06 01:33:39;;;;;;;34.40;20.85;;;;;;;1.31;100.00;101332.63;5096705;28;20027;-74
2023/12/06 01:36:05;;;;;;;41.13;22.10;;;;;;;1.31;100.00;101345.75;5096717;28;20031;-76
2023/12/06 01:38:30;;;;;;;37.13;20.92;;;;;;;1.31;100.00;101344.91;5097430;28;20111;-75
2023/12/06 01:40:56;;;;;;;36.33;21.15;;;;;;;1.30;100.00;101343.19;5114851;28;20065;-74
2023/12/06 01:43:21;;;;;;;39.22;19.80;;;;;;;1.32;100.00;101341.38;5097241;28;20024;-75
2023/12/06 01:45:47;;;;;;;33.60;18.90;;;;;;;1.36;100.00;101342.94;5115214;28;20030;-75
2023/12/06 01:48:12;;;;;;;32.63;18.27;;;;;;;1.42;100.00;101355.78;5115010;28;20032;-75
2023/12/06 01:50:40;;;;;;;31.92;18.02;;;;;;;1.47;100.00;101355.56;5115488;28;20032;-75
2023/12/06 01:53:05;;;;;;;29.45;17.05;;;;;;;1.50;100.00;101364.16;5114910;28;20020;-75
2023/12/06 01:55:32;;;;;;;30.33;15.85;;;;;;;1.57;100.00;101367.38;5096488;28;20081;-75
2023/12/06 01:57:58;;;;;;;25.77;14.18;;;;;;;1.66;100.00;101366.94;5114713;28;20034;-74
2023/12/06 02:00:24;;;;;;;21.33;13.10;;;;;;;1.77;100.00;101376.94;5115031;28;20032;-74
2023/12/06 02:02:50;;;;;;;23.98;14.52;;;;;;;1.84;100.00;101369.66;5115639;28;20047;-74
2023/12/06 02:05:16;;;;;;;27.35;13.02;;;;;;;1.90;100.00;101370.22;5114722;28;20092;-74
2023/12/06 02:07:42;;;;;;;17.70;11.48;;;;;;;2.02;100.00;101375.84;5115035;28;20036;-75
2023/12/06 02:10:09;;;;;;;23.98;12.38;;;;;;;2.10;100.00;101390.28;5115204;28;20473;-73
2023/12/06 02:12:35;;;;;;;24.33;11.85;;;;;;;2.17;100.00;101379.53;5115254;28;20019;-76
2023/12/06 02:15:01;;;;;;;22.27;12.23;;;;;;;2.21;100.00;101386.31;5118303;28;20482;-75
2023/12/06 02:17:27;;;;;;;20.10;12.57;;;;;;;2.24;100.00;101387.06;5120295;28;20032;-74
2023/12/06 02:19:54;;;;;;;15.90;10.10;;;;;;;2.25;100.00;101383.47;5125121;28;20023;-73
2023/12/06 02:22:21;;;;;;;17.67;9.75;;;;;;;2.27;100.00;101386.06;5106631;28;20043;-73
2023/12/06 02:24:49;;;;;;;15.95;9.38;;;;;;;2.27;100.00;101386.06;5124577;28;20073;-73
2023/12/06 02:27:15;;;;;;;15.77;8.98;;;;;;;2.25;100.00;101383.47;5120845;28;20041;-75
2023/12/06 02:29:40;;;;;;;16.20;8.65;;;;;;;2.26;100.00;101389.59;5121092;28;20024;-74
2023/12/06 02:32:05;;;;;;;22.52;8.73;;;;;;;2.26;100.00;101390.44;5103440;28;20030;-75
2023/12/06 02:34:32;;;;;;;14.18;9.05;;;;;;;2.26;100.00;101392.22;5120396;28;20030;-76
2023/12/06 02:37:03;;;;;;;17.42;8.93;;;;;;;2.25;100.00;101396.59;5117261;28;20039;-76
2023/12/06 02:39:34;;;;;;;17.85;9.55;;;;;;;2.28;100.00;101399.13;5115126;28;20035;-74
2023/12/06 02:41:59;;;;;;;18.07;10.03;;;;;;;2.30;100.00;101391.16;5114426;28;20378;-74
2023/12/06 02:44:25;;;;;;;17.95;9.88;;;;;;;2.33;100.00;101388.41;5115041;28;20031;-75
2023/12/06 02:46:50;;;;;;;27.38;10.50;;;;;;;2.37;100.00;101399.59;5114434;28;20024;-75
2023/12/06 02:49:16;;;;;;;29.45;11.25;;;;;;;2.37;100.00;101404.84;5114740;28;20447;-76
2023/12/06 02:51:41;;;;;;;20.20;11.32;;;;;;;2.42;100.00;101403.72;5114313;28;20384;-74
2023/12/06 02:54:07;;;;;;;29.50;12.60;;;;;;;2.49;100.00;101404.25;5114174;28;20032;-75
2023/12/06 02:56:32;;;;;;;24.00;12.68;;;;;;;2.53;100.00;101402.34;5114052;28;20031;-74
2023/12/06 02:58:57;;;;;;;21.63;12.55;;;;;;;2.55;100.00;101397.88;5114128;28;20039;-75
2023/12/06 03:01:23;;;;;;;26.73;13.50;;;;;;;2.54;100.00;101398.78;5113938;28;20364;-75
2023/12/06 03:03:48;;;;;;;24.30;13.10;;;;;;;2.53;100.00;101402.34;5114487;28;20053;-75
2023/12/06 03:06:13;;;;;;;23.05;13.38;;;;;;;2.51;100.00;101405.06;5113948;28;20385;-74
2023/12/06 03:08:38;;;;;;;25.80;12.75;;;;;;;2.52;100.00;101400.63;5113867;28;20398;-77
2023/12/06 03:11:04;;;;;;;22.80;13.60;;;;;;;2.52;100.00;101396.22;5095686;28;20442;-76
2023/12/06 03:13:29;;;;;;;29.40;13.93;;;;;;;2.52;100.00;101398.84;5096100;28;20034;-75
2023/12/06 03:15:55;;;;;;;27.60;14.20;;;;;;;2.54;100.00;101404.91;5113739;28;20151;-75
2023/12/06 03:18:20;;;;;;;23.55;14.70;;;;;;;2.55;100.00;101408.38;5095252;28;20096;-75
2023/12/06 03:20:45;;;;;;;30.85;14.07;;;;;;;2.56;100.00;101407.47;5113495;28;20475;-75
2023/12/06 03:23:11;;;;;;;29.75;14.13;;;;;;;2.55;100.00;101405.75;5113519;28;20383;-74
2023/12/06 03:25:36;;;;;;;33.88;13.05;;;;;;;2.53;100.00;101411.06;5095970;28;20463;-75
2023/12/06 03:28:02;;;;;;;26.77;12.50;;;;;;;2.52;100.00;101408.53;5095523;28;20027;-75
2023/12/06 03:30:29;;;;;;;27.27;12.05;;;;;;;2.51;100.00;101404.19;5113675;28;20150;-75
2023/12/06 03:32:54;;;;;;;29.25;11.85;;;;;;;2.46;100.00;101400.03;5113587;28;20066;-75
2023/12/06 03:35:19;;;;;;;22.60;10.98;;;;;;;2.46;100.00;101404.41;5113655;28;20031;-75
2023/12/06 03:37:45;;;;;;;22.92;10.98;;;;;;;2.42;100.00;101406.34;5113613;28;20023;-75
2023/12/06 03:40:10;;;;;;;25.95;10.95;;;;;;;2.43;100.00;101407.19;5113638;28;20040;-75
2023/12/06 03:42:36;;;;;;;18.05;10.68;;;;;;;2.41;100.00;101407.25;5113533;28;20110;-75
2023/12/06 03:45:01;;;;;;;18.73;10.02;;;;;;;2.42;100.00;101408.97;5096570;28;20027;-75
2023/12/06 03:47:27;;;;;;;25.73;9.65;;;;;;;2.40;100.00;101409.94;5117232;28;20024;-75
2023/12/06 03:49:53;;;;;;;20.95;9.63;;;;;;;2.41;100.00;101403.78;5117495;28;20030;-75
2023/12/06 03:52:18;;;;;;;16.10;9.18;;;;;;;2.42;100.00;101402.88;5099360;28;20110;-75
2023/12/06 03:54:44;;;;;;;21.05;8.40;;;;;;;2.43;100.00;101410.69;5117316;28;20375;-77
2023/12/06 03:57:09;;;;;;;17.58;8.57;;;;;;;2.48;100.00;101413.09;5098688;28;20208;-74
2023/12/06 03:59:34;;;;;;;17.63;8.07;;;;;;;2.51;100.00;101418.19;5117695;28;20077;-74
2023/12/06 04:02:00;;;;;;;18.85;8.10;;;;;;;2.57;100.00;101422.31;5117771;28;20422;-76
2023/12/06 04:04:28;;;;;;;14.05;8.43;;;;;;;2.62;100.00;101415.03;5117672;28;20489;-74
2023/12/06 04:06:53;;;;;;;16.33;7.68;;;;;;;2.67;100.00;101415.66;5118345;28;20494;-76
2023/12/06 04:09:19;;;;;;;22.88;7.70;;;;;;;2.71;100.00;101411.97;5117586;28;20031;-76
2023/12/06 04:11:44;;;;;;;28.33;8.25;;;;;;;2.74;100.00;101411.81;5099142;28;20024;-75
2023/12/06 04:14:09;;;;;;;16.85;7.80;;;;;;;2.78;100.00;101412.53;5099138;28;20106;-75
2023/12/06 04:16:36;;;;;;;15.32;7.43;;;;;;;2.81;100.00;101413.22;5099353;28;20067;-74
2023/12/06 04:19:02;;;;;;;13.52;6.82;;;;;;;2.83;100.00;101415.78;5116807;28;20040;-75
2023/12/06 04:21:27;;;;;;;10.60;6.53;;;;;;;2.86;100.00;101423.50;5116915;28;20589;-75
2023/12/06 04:23:53;;;;;;;11.63;6.57;;;;;;;2.92;100.00;101425.00;5098480;28;20454;-75
2023/12/06 04:26:18;;;;;;;11.48;6.60;;;;;;;2.97;100.00;101425.59;5098999;28;20072;-76
2023/12/06 04:28:43;;;;;;;16.25;7.07;;;;;;;2.96;100.00;101421.28;5117517;28;20024;-75
2023/12/06 04:31:09;;;;;;;13.98;6.38;;;;;;;2.98;100.00;101416.81;5116824;28;20024;-76
2023/12/06 04:33:34;;;;;;;14.85;6.25;;;;;;;2.96;100.00;101413.41;5098340;28;20366;-75
2023/12/06 04:36:00;;;;;;;20.85;6.72;;;;;;;2.95;100.00;101414.31;5116340;28;20035;-76
2023/12/06 04:38:25;;;;;;;15.85;5.75;;;;;;;2.93;100.00;101403.03;5116608;28;20027;-76
2023/12/06 04:40:51;;;;;;;12.52;6.00;;;;;;;2.92;100.00;101417.94;5116135;28;20111;-76
2023/12/06 04:43:17;;;;;;;11.00;5.57;;;;;;;2.91;100.00;101425.91;5116527;28;20034;-76
2023/12/06 04:45:42;;;;;;;7.15;4.63;;;;;;;2.90;100.00;101421.59;5116542;28;20110;-76
2023/12/06 04:48:08;;;;;;;10.77;4.55;;;;;;;2.90;100.00;101419.81;5097901;28;20020;-76
2023/12/06 04:50:33;;;;;;;15.95;5.85;;;;;;;2.94;100.00;101423.13;5098151;28;20051;-76
2023/12/06 04:52:58;;;;;;;10.98;4.68;;;;;;;2.94;100.00;101423.13;5116012;28;20400;-76
2023/12/06 04:55:24;;;;;;;10.68;5.47;;;;;;;2.93;100.00;101426.72;5116047;28;20494;-75
2023/12/06 04:57:49;;;;;;;13.77;5.55;;;;;;;2.93;100.00;101431.97;5116428;28;20024;-77
2023/12/06 05:00:16;;;;;;;15.50;5.35;;;;;;;2.93;100.00;101429.34;5116056;28;20094;-75
2023/12/06 05:02:41;;;;;;;11.15;5.47;;;;;;;2.91;100.00;101433.78;5116401;28;20039;-76
2023/12/06 05:05:07;;;;;;;13.30;5.88;;;;;;;2.92;100.00;101438.13;5097682;28;20028;-76
2023/12/06 05:07:32;;;;;;;11.32;5.32;;;;;;;2.92;100.00;101446.03;5116484;28;20031;-75
2023/12/06 05:09:57;;;;;;;8.30;5.35;;;;;;;2.95;100.00;101445.88;5115909;28;20076;-76
2023/12/06 05:12:23;;;;;;;10.13;5.10;;;;;;;2.93;100.00;101453.84;5115529;28;20032;-76
2023/12/06 05:14:48;;;;;;;10.57;5.70;;;;;;;2.96;100.00;101448.44;5116101;28;20062;-75
2023/12/06 05:17:13;;;;;;;12.10;5.43;;;;;;;2.96;100.00;101455.47;5097377;28;20360;-75
2023/12/06 05:19:39;;;;;;;10.65;4.97;;;;;;;2.93;100.00;101447.75;5115300;28;20104;-74
2023/12/06 05:22:04;;;;;;;8.82;4.85;;;;;;;2.95;100.00;101448.50;5115685;28;20110;-75
2023/12/06 05:24:29;;;;;;;7.78;4.63;;;;;;;2.95;100.00;101451.97;5115745;28;20031;-75
2023/12/06 05:26:55;;;;;;;7.97;4.72;;;;;;;2.93;100.00;101448.56;5097513;28;20519;-76
2023/12/06 05:29:20;;;;;;;7.60;4.95;;;;;;;2.91;100.00;101450.44;5115616;28;20118;-77
2023/12/06 05:31:45;;;;;;;9.43;4.53;;;;;;;2.88;100.00;101450.59;5097082;28;20421;-75
2023/12/06 05:34:11;;;;;;;13.65;4.97;;;;;;;2.86;100.00;101451.59;5115298;28;20439;-76
2023/12/06 05:36:36;;;;;;;16.77;5.03;;;;;;;2.84;100.00;101462.19;5115530;28;20372;-75
2023/12/06 05:39:05;;;;;;;14.90;5.05;;;;;;;2.86;100.00;101462.94;5115324;28;20051;-76
2023/12/06 05:41:30;;;;;;;10.82;5.13;;;;;;;2.83;100.00;101460.47;5115538;28;20036;-76
2023/12/06 05:43:56;;;;;;;11.85;4.60;;;;;;;2.80;100.00;101457.97;5115245;28;20042;-76
2023/12/06 05:46:22;;;;;;;12.02;4.85;;;;;;;2.75;100.00;101460.00;5097792;28;20053;-75
2023/12/06 05:48:47;;;;;;;7.40;4.65;;;;;;;2.74;100.00;101463.53;5114833;28;20026;-76
2023/12/06 05:51:12;;;;;;;9.15;5.10;;;;;;;2.71;100.00;101471.56;5114722;28;20043;-76
2023/12/06 05:53:38;;;;;;;13.25;5.18;;;;;;;2.71;100.00;101480.28;5115908;28;20123;-76
2023/12/06 05:56:05;;;;;;;14.52;5.45;;;;;;;2.66;100.00;101482.31;5116552;28;20047;-75
2023/12/06 05:58:30;;;;;;;10.75;5.30;;;;;;;2.56;100.00;101492.38;5116355;28;20047;-75
2023/12/06 06:00:56;;;;;;;12.52;5.35;;;;;;;2.45;100.00;101498.13;5115880;28;20055;-75
2023/12/06 06:03:21;;;;;;;11.65;4.95;;;;;;;2.35;100.00;101496.00;5115833;28;20031;-76
2023/12/06 06:05:47;;;;;;;10.38;4.97;;;;;;;2.26;100.00;101489.38;5116118;28;20422;-76
2023/12/06 06:08:12;;;;;;;18.17;7.20;;;;;;;2.17;100.00;101493.28;5097504;28;20024;-76
2023/12/06 06:10:37;;;;;;;18.65;6.30;;;;;;;2.08;100.00;101489.28;5115600;28;20085;-76
2023/12/06 06:13:03;;;;;;;10.95;5.78;;;;;;;1.96;100.00;101489.84;5081533;28;20458;-77
2023/12/06 06:15:28;;;;;;;16.90;6.20;;;;;;;1.86;100.00;101485.91;5115895;28;20031;-76
2023/12/06 06:17:54;;;;;;;17.95;6.05;;;;;;;1.74;100.00;101488.13;5100169;28;20448;-76
2023/12/06 06:20:19;;;;;;;13.48;5.60;;;;;;;1.67;100.00;101484.09;5116246;28;20100;-75
2023/12/06 06:22:45;;;;;;;8.75;5.18;;;;;;;1.61;100.00;101488.72;5115655;28;20058;-76
2023/12/06 06:25:10;;;;;;;13.00;5.53;;;;;;;1.48;100.00;101494.50;5117860;28;20023;-76
2023/12/06 06:27:36;;;;;;;14.82;5.97;;;;;;;1.36;100.00;101495.03;5116347;28;20161;-75
2023/12/06 06:30:01;;;;;;;8.88;5.65;;;;;;;1.29;100.00;101501.44;5100041;28;20164;-75
2023/12/06 06:32:27;;;;;;;12.82;5.65;;;;;;;1.23;100.00;101502.53;5097056;28;20367;-75
2023/12/06 06:34:52;;;;;;;15.45;6.35;;;;;;;1.19;100.00;101503.56;5096850;28;20023;-76
2023/12/06 06:37:18;;;;;;;12.68;6.03;;;;;;;1.22;100.00;101504.31;5115868;28;20030;-74
2023/12/06 06:39:43;;;;;;;15.05;6.65;;;;;;;1.20;100.00;101503.50;5114569;28;20382;-76
2023/12/06 06:42:09;;;;;;;10.73;5.35;;;;;;;1.14;100.00;101513.41;5114924;28;20028;-75
2023/12/06 06:44:34;;;;;;;12.38;5.25;;;;;;;1.10;100.00;101511.81;5114765;28;20452;-74
2023/12/06 06:47:00;;;;;;;13.63;5.20;;;;;;;1.12;100.00;101515.22;5114270;28;20030;-75
2023/12/06 06:49:25;;;;;;;12.85;4.75;;;;;;;1.11;100.00;101519.63;5113970;28;20107;-74
2023/12/06 06:51:51;;;;;;;10.27;4.88;;;;;;;1.10;100.00;101522.28;5114514;28;20023;-75
2023/12/06 06:54:16;;;;;;;12.05;5.55;;;;;;;1.09;100.00;101515.34;5114739;28;20126;-75
2023/12/06 06:56:42;;;;;;;11.48;5.53;;;;;;;1.08;100.00;101516.28;5113986;28;20055;-74
2023/12/06 06:59:07;;;;;;;9.52;5.22;;;;;;;1.08;100.00;101518.91;5113910;28;20023;-75
2023/12/06 07:01:32;;;;;;;12.07;5.20;;;;;;;1.16;100.00;101532.53;5114237;28;20444;-75
2023/12/06 07:03:58;;;;;;;8.93;4.85;;;;;;;1.25;100.00;101536.56;5113921;28;20036;-77
2023/12/06 07:06:23;;;;;;;11.15;4.65;;;;;;;1.25;100.00;101536.56;5113630;28;20482;-75
2023/12/06 07:08:49;;;;;;;7.32;4.65;;;;;;;1.21;100.00;101539.31;5113269;28;20054;-73
2023/12/06 07:11:15;;;;;;;12.60;4.95;;;;;;;1.17;100.00;101540.34;5113634;28;20036;-77
2023/12/06 07:13:40;;;;;;;11.00;4.70;;;;;;;1.17;100.00;101545.56;5113487;28;20035;-77
2023/12/06 07:16:06;;;;;;;9.95;4.78;;;;;;;1.25;100.00;101547.88;5095341;28;20051;-77
2023/12/06 07:18:34;;;;;;;8.55;4.43;;;;;;;1.24;100.00;101540.97;5114173;28;20034;-76
2023/12/06 07:21:00;;;;;;;14.40;5.28;;;;;;;1.17;100.00;101549.97;5117329;28;20028;-75
2023/12/06 07:23:25;;;;;;;7.85;5.20;;;;;;;1.07;100.00;101548.63;5099341;28;20029;-74
2023/12/06 07:25:52;;;;;;;12.88;4.80;;;;;;;0.99;100.00;101552.41;5099670;28;20050;-80
2023/12/06 07:28:18;;;;;;;17.98;4.82;;;;;;;0.93;100.00;101552.63;5117457;28;20362;-76
2023/12/06 07:30:43;;;;;;;8.20;4.72;;;;;;;0.94;100.00;101550.88;5117822;28;20107;-77
2023/12/06 07:33:09;;;;;;;11.32;4.55;;;;;;;0.98;100.00;101555.91;5117722;28;20443;-77
2023/12/06 07:35:35;;;;;;;11.77;4.63;;;;;;;1.11;100.00;101561.56;5117494;28;20055;-76
2023/12/06 07:38:01;;;;;;;10.85;3.97;;;;;;;1.21;100.00;101565.53;5099803;28;20104;-74
2023/12/06 07:40:26;;;;;;;16.08;4.63;;;;;;;1.30;100.00;101569.53;5117562;28;20023;-77
2023/12/06 07:42:52;;;;;;;18.13;4.78;;;;;;;1.41;100.00;101567.31;5117546;28;20110;-77
2023/12/06 07:45:17;;;;;;;6.38;3.95;;;;;;;1.48;100.00;101567.06;5117607;28;20068;-76
2023/12/06 07:47:43;;;;;;;6.47;3.75;;;;;;;1.54;100.00;101572.94;5118041;28;20035;-77
2023/12/06 07:50:09;;;;;;;16.08;4.53;;;;;;;1.63;100.00;101571.72;5117213;28;20447;-77
2023/12/06 07:52:35;;;;;;;10.02;4.35;;;;;;;1.73;100.00;101566.91;5116868;28;20121;-77
2023/12/06 07:55:00;;;;;;;6.80;4.13;;;;;;;1.85;100.00;101570.81;5117342;28;20035;-76
2023/12/06 07:57:28;;;;;;;7.85;4.43;;;;;;;1.94;100.00;101573.91;5116724;28;20153;-77
2023/12/06 07:59:56;;;;;;;8.85;4.15;;;;;;;2.07;100.00;101566.34;5117035;28;20476;-76
2023/12/06 08:02:22;;;;;;;11.93;4.43;;;;;;;2.21;100.00;101575.38;5116878;28;20027;-75
2023/12/06 08:04:47;;;;;;;13.30;4.95;;;;;;;2.35;100.00;101575.63;5117452;28;20030;-75
2023/12/06 08:07:13;;;;;;;7.97;3.80;;;;;;;2.44;100.00;101569.97;5116721;28;20027;-74
2023/12/06 08:09:39;;;;;;;10.00;4.68;;;;;;;2.50;100.00;101568.84;5116963;28;20036;-73
2023/12/06 08:12:06;;;;;;;10.40;4.28;;;;;;;2.60;100.00;101582.44;5116703;28;20347;-76
2023/12/06 08:14:31;;;;;;;9.30;4.53;;;;;;;2.59;100.00;101578.94;5116715;28;20030;-73
2023/12/06 08:16:56;;;;;;;9.20;4.22;;;;;;;2.63;100.00;101584.91;5098256;28;20114;-73
2023/12/06 08:19:22;;;;;;;6.40;4.10;;;;;;;2.65;100.00;101586.53;5116545;28;20043;-74
2023/12/06 08:21:47;;;;;;;10.57;4.65;;;;;;;2.71;100.00;101590.66;5116525;28;20478;-74
2023/12/06 08:24:13;;;;;;;13.70;5.75;;;;;;;2.77;100.00;101589.53;5116530;28;20024;-74
2023/12/06 08:26:38;;;;;;;9.30;4.45;;;;;;;2.79;100.00;101587.69;5116494;28;20348;-73
2023/12/06 08:29:03;;;;;;;7.95;4.45;;;;;;;2.79;100.00;101587.69;5098784;28;20024;-73
2023/12/06 08:31:29;;;;;;;9.32;4.63;;;;;;;2.86;100.00;101598.78;5115775;28;20023;-73
2023/12/06 08:33:54;;;;;;;10.52;4.53;;;;;;;2.95;100.00;101593.94;5116352;28;20027;-73
2023/12/06 08:36:19;;;;;;;6.82;4.22;;;;;;;3.02;100.00;101601.56;5116649;28;20491;-74
2023/12/06 08:38:45;;;;;;;12.15;4.25;;;;;;;3.06;100.00;101596.09;5098036;28;20460;-73
2023/12/06 08:41:10;;;;;;;8.45;4.38;;;;;;;3.10;100.00;101604.66;5116570;28;20106;-73
2023/12/06 08:43:37;;;;;;;11.40;4.25;;;;;;;3.14;100.00;101606.25;5116575;28;20062;-73
2023/12/06 08:46:02;;;;;;;14.77;4.03;;;;;;;3.17;100.00;101603.47;5098362;28;20110;-73
2023/12/06 08:48:27;;;;;;;13.23;4.45;;;;;;;3.18;100.00;101611.28;5098106;28;20440;-74
2023/12/06 08:50:53;;;;;;;12.23;4.22;;;;;;;3.27;100.00;101611.75;5116626;28;20019;-74
2023/12/06 08:53:18;;;;;;;8.95;4.60;;;;;;;3.35;100.00;101617.50;5098116;28;20118;-73
2023/12/06 08:55:44;;;;;;;11.45;4.22;;;;;;;3.38;100.00;101620.00;5080997;28;20073;-75
2023/12/06 08:58:09;;;;;;;13.50;4.65;;;;;;;3.44;100.00;101624.13;5116298;28;20030;-74
2023/12/06 09:00:34;;;;;;;11.25;4.30;;;;;;;3.49;100.00;101628.25;5097908;28;20379;-73
2023/12/06 09:03:01;;;;;;;9.88;4.10;;;;;;;3.57;100.00;101635.75;5115867;28;20039;-73
2023/12/06 09:05:29;;;;;;;8.95;4.60;;;;;;;3.64;100.00;101629.28;5116265;28;20028;-73
2023/12/06 09:07:55;;;;;;;13.13;4.20;;;;;;;3.71;100.00;101627.19;5116033;28;20171;-74
2023/12/06 09:10:20;;;;;;;10.50;4.90;;;;;;;3.79;100.00;101638.19;5115835;28;20507;-73
2023/12/06 09:12:45;;;;;;;12.52;3.88;;;;;;;3.81;100.00;101638.13;5115740;28;20523;-73
2023/12/06 09:15:11;;;;;;;11.50;3.53;;;;;;;3.83;100.00;101631.00;5115741;28;20026;-73
2023/12/06 09:17:36;;;;;;;7.82;3.38;;;;;;;3.80;100.00;101626.72;5098170;28;20435;-74
2023/12/06 09:20:02;;;;;;;10.63;3.80;;;;;;;3.76;100.00;101624.31;5116213;28;20467;-74
2023/12/06 09:22:28;;;;;;;8.82;4.07;;;;;;;3.71;100.00;101624.56;5116593;28;20032;-73
2023/12/06 09:24:53;;;;;;;6.32;3.83;;;;;;;3.64;100.00;101620.50;5115822;28;20068;-74
2023/12/06 09:27:18;;;;;;;4.82;3.15;;;;;;;3.65;100.00;101624.84;5115679;28;20119;-73
2023/12/06 09:29:45;;;;;;;5.63;2.95;;;;;;;3.73;100.00;101630.59;5116167;28;20057;-72
2023/12/06 09:32:11;;;;;;;4.35;2.90;;;;;;;3.82;100.00;101635.41;5115605;28;20027;-73
2023/12/06 09:34:36;;;;;;;7.93;3.10;;;;;;;3.92;100.00;101640.22;5115434;28;20421;-74
2023/12/06 09:37:02;;;;;;;5.95;2.95;;;;;;;4.02;100.00;101630.94;5063749;28;20025;-73
2023/12/06 09:39:27;;;;;;;9.10;2.97;;;;;;;4.14;100.00;101647.91;5115242;28;20054;-74
2023/12/06 09:41:53;;;;;;;4.80;2.83;;;;;;;4.20;100.00;101639.69;5114635;28;20032;-74
2023/12/06 09:44:18;;;;;;;4.40;2.53;;;;;;;4.28;100.00;101648.03;5097249;28;20032;-74
2023/12/06 09:46:46;;;;;;;4.82;2.78;;;;;;;4.43;100.00;101640.28;5097130;28;20027;-74
2023/12/06 09:49:11;;;;;;;5.20;2.97;;;;;;;4.55;100.00;101647.53;5114907;28;20455;-73
2023/12/06 09:51:37;;;;;;;4.47;2.50;;;;;;;4.74;100.00;101643.00;5114718;28;20030;-74
2023/12/06 09:54:03;;;;;;;4.68;2.65;;;;;;;4.90;100.00;101640.41;5096789;28;20375;-73
2023/12/06 09:56:31;;;;;;;3.58;2.63;;;;;;;5.06;100.00;101650.09;5096900;28;20439;-74
2023/12/06 09:58:56;;;;;;;4.75;3.08;;;;;;;5.12;100.00;101645.38;5114970;28;20080;-74
2023/12/06 10:01:22;;;;;;;13.85;3.25;;;;;;;5.12;100.00;101641.88;5114877;28;20031;-73
2023/12/06 10:03:48;;;;;;;5.50;2.80;;;;;;;5.13;100.00;101648.84;5115017;28;20130;-73
2023/12/06 10:06:16;;;;;;;4.15;2.65;;;;;;;5.14;100.00;101644.44;5079609;28;20463;-74
2023/12/06 10:08:41;;;;;;;3.83;2.55;;;;;;;5.11;100.00;101645.44;5097012;28;20023;-73
2023/12/06 10:11:08;;;;;;;6.05;3.00;;;;;;;5.08;100.00;101661.44;5114808;28;20045;-73
2023/12/06 10:13:35;;;;;;;6.25;2.88;;;;;;;5.05;100.00;101651.91;5115128;28;20026;-74
2023/12/06 10:16:01;;;;;;;4.72;3.05;;;;;;;5.04;100.00;101649.34;5114530;28;20385;-73
2023/12/06 10:18:26;;;;;;;8.05;3.03;;;;;;;5.05;100.00;101651.91;5114091;28;20019;-74
2023/12/06 10:20:52;;;;;;;6.70;3.22;;;;;;;5.09;100.00;101653.44;5114629;28;20340;-73
2023/12/06 10:23:17;;;;;;;14.48;3.22;;;;;;;5.12;100.00;101649.81;5114843;28;20035;-73
2023/12/06 10:25:44;;;;;;;9.55;3.30;;;;;;;5.13;100.00;101643.56;5114314;28;20031;-73
2023/12/06 10:28:11;;;;;;;6.60;3.00;;;;;;;5.18;100.00;101652.09;5114156;28;20111;-73
2023/12/06 10:30:36;;;;;;;13.10;3.65;;;;;;;5.23;100.00;101649.19;5114348;28;20034;-73
2023/12/06 10:33:04;;;;;;;10.25;3.67;;;;;;;5.29;100.00;101646.22;5114798;28;20027;-73
2023/12/06 10:35:31;;;;;;;6.25;3.30;;;;;;;5.37;100.00;101651.06;5114385;28;20467;-72
2023/12/06 10:37:59;;;;;;;6.32;2.90;;;;;;;5.47;100.00;101652.25;5096808;28;20465;-73
2023/12/06 10:40:26;;;;;;;6.28;2.72;;;;;;;5.62;100.00;101651.38;5114456;28;20099;-73
2023/12/06 10:42:56;;;;;;;5.97;2.38;;;;;;;5.83;100.00;101648.47;5114405;28;20035;-73
2023/12/06 10:45:22;;;;;;;9.57;2.25;;;;;;;6.06;100.00;101649.81;5114884;28;20072;-73
2023/12/06 10:47:49;;;;;;;4.88;2.30;;;;;;;6.31;100.00;101649.19;5115218;28;20028;-72
2023/12/06 10:50:16;;;;;;;6.25;2.72;;;;;;;6.34;100.00;101650.81;5114410;28;20031;-73
2023/12/06 10:52:43;;;;;;;6.40;2.40;;;;;;;6.43;100.00;101642.31;5095777;28;20024;-73
2023/12/06 10:55:10;;;;;;;6.70;2.40;;;;;;;6.60;100.00;101649.25;5113562;28;20027;-74
2023/12/06 10:57:37;;;;;;;13.20;2.42;;;;;;;6.78;100.00;101649.06;5113724;28;20024;-75
2023/12/06 11:00:03;;;;;;;7.07;2.50;;;;;;;6.89;100.00;101649.25;5095527;28;20058;-74
2023/12/06 11:02:29;;;;;;;4.20;2.63;;;;;;;6.88;100.00;101648.41;5095581;28;20106;-73
2023/12/06 11:04:57;;;;;;;5.90;2.50;;;;;;;6.88;100.00;101656.34;5113593;28;20476;-73
2023/12/06 11:07:56;;;;;;;7.38;2.67;;;;;;;6.81;100.00;101655.00;5113606;28;20111;-72
2023/12/06 11:10:34;;;;;;;7.05;2.33;;;;;;;6.56;100.00;101655.66;5113687;28;20444;-73